createdAt,value
2023-05-20T00:00:03.515Z,0.00
2023-05-20T00:01:03.590Z,0.00
2023-05-20T00:02:03.424Z,0.00
2023-05-20T00:03:04.719Z,0.00
2023-05-20T00:04:03.650Z,0.00
2023-05-20T00:05:03.376Z,0.00
2023-05-20T00:06:03.261Z,0.00
2023-05-20T00:07:05.678Z,0.00
2023-05-20T00:08:03.160Z,0.00
2023-05-20T00:09:04.253Z,0.00
2023-05-20T00:10:03.077Z,0.00
2023-05-20T00:11:03.036Z,0.00
2023-05-20T00:12:03.049Z,0.00
2023-05-20T00:13:02.992Z,0.00
2023-05-20T00:14:03.078Z,0.00
2023-05-20T00:15:02.862Z,0.00
2023-05-20T00:16:02.911Z,0.00
2023-05-20T00:17:02.771Z,0.00
2023-05-20T00:18:02.926Z,0.00
2023-05-20T00:19:02.988Z,0.00
2023-05-20T00:20:02.701Z,0.00
2023-05-20T00:21:02.612Z,0.00
2023-05-20T00:22:02.712Z,0.00
2023-05-20T00:23:02.515Z,0.00
2023-05-20T00:24:02.525Z,0.00
2023-05-20T00:25:02.713Z,0.00
2023-05-20T00:26:02.536Z,0.00
2023-05-20T00:27:02.337Z,0.00
2023-05-20T00:28:02.298Z,0.00
2023-05-20T00:29:02.256Z,0.00
2023-05-20T00:30:02.363Z,0.00
2023-05-20T00:31:02.212Z,0.00
2023-05-20T00:32:02.461Z,0.00
2023-05-20T00:33:02.173Z,0.00
2023-05-20T00:34:02.037Z,0.00
2023-05-20T00:35:02.002Z,0.00
2023-05-20T00:36:02.203Z,0.00
2023-05-20T00:37:02.056Z,0.00
2023-05-20T00:38:02.011Z,0.00
2023-05-20T00:39:01.820Z,0.00
2023-05-20T00:40:01.775Z,0.00
2023-05-20T00:41:01.726Z,0.00
2023-05-20T00:42:02.860Z,0.00
2023-05-20T00:43:01.681Z,0.00
2023-05-20T00:44:01.848Z,0.00
2023-05-20T00:45:01.552Z,0.00
2023-05-20T00:46:01.531Z,0.00
2023-05-20T00:47:01.468Z,0.00
2023-05-20T00:48:02.547Z,0.00
2023-05-20T00:49:01.410Z,0.00
2023-05-20T00:50:01.714Z,0.00
2023-05-20T00:51:01.345Z,0.00
2023-05-20T00:52:01.263Z,0.00
2023-05-20T00:53:01.302Z,0.00
2023-05-20T00:54:01.167Z,0.00
2023-05-20T00:55:01.316Z,0.00
2023-05-20T00:56:01.093Z,0.00
2023-05-20T00:57:02.358Z,0.00
2023-05-20T00:58:01.001Z,0.00
2023-05-20T00:59:01.138Z,0.00
2023-05-20T01:00:00.894Z,0.00
2023-05-20T01:01:00.976Z,0.00
2023-05-20T01:02:00.816Z,0.00
2023-05-20T01:03:01.247Z,0.00
2023-05-20T01:04:00.725Z,0.00
2023-05-20T01:05:01.794Z,0.00
2023-05-20T01:06:00.637Z,0.00
2023-05-20T01:07:00.797Z,0.00
2023-05-20T01:08:00.576Z,0.00
2023-05-20T01:09:00.600Z,0.00
2023-05-20T01:10:00.459Z,0.00
2023-05-20T01:11:00.628Z,0.00
2023-05-20T01:12:00.438Z,0.00
2023-05-20T01:13:00.639Z,0.00
2023-05-20T01:14:00.287Z,0.00
2023-05-20T01:15:00.241Z,0.00
2023-05-20T01:16:00.264Z,0.00
2023-05-20T01:17:00.245Z,0.00
2023-05-20T01:18:00.168Z,0.00
2023-05-20T01:19:00.292Z,0.00
2023-05-20T01:20:00.050Z,0.00
2023-05-20T01:20:59.973Z,0.00
2023-05-20T01:21:59.945Z,0.00
2023-05-20T01:23:00.099Z,0.00
2023-05-20T01:23:59.845Z,0.00
2023-05-20T01:25:01.126Z,0.00
2023-05-20T01:25:59.765Z,0.00
2023-05-20T01:26:59.734Z,0.00
2023-05-20T01:27:59.922Z,0.00
2023-05-20T01:28:59.631Z,0.00
2023-05-20T01:30:01.786Z,0.00
2023-05-20T01:30:59.609Z,0.00
2023-05-20T01:32:00.563Z,0.00
2023-05-20T01:32:59.503Z,0.00
2023-05-20T01:33:59.555Z,0.00
2023-05-20T01:34:59.365Z,0.00
2023-05-20T01:36:01.404Z,0.00
2023-05-20T01:36:59.413Z,0.00
2023-05-20T01:37:59.379Z,0.00
2023-05-20T01:38:59.184Z,0.00
2023-05-20T01:39:59.388Z,0.00
2023-05-20T01:40:59.093Z,0.00
2023-05-20T01:41:59.200Z,0.00
2023-05-20T01:42:59.030Z,0.00
2023-05-20T01:43:59.218Z,0.00
2023-05-20T01:44:58.922Z,0.00
2023-05-20T01:46:00.049Z,0.00
2023-05-20T01:47:01.374Z,0.00
2023-05-20T01:47:59.097Z,0.00
2023-05-20T01:48:58.747Z,0.00
2023-05-20T01:50:19.695Z,0.00
2023-05-20T01:50:58.672Z,0.00
2023-05-20T01:51:58.861Z,0.00
2023-05-20T01:52:58.571Z,0.00
2023-05-20T01:53:58.698Z,0.00
2023-05-20T01:54:58.683Z,0.00
2023-05-20T01:55:58.443Z,0.00
2023-05-20T01:56:58.391Z,0.00
2023-05-20T01:57:59.534Z,0.00
2023-05-20T01:58:58.305Z,0.00
2023-05-20T01:59:58.518Z,0.00
2023-05-20T02:00:58.235Z,0.00
2023-05-20T02:01:58.339Z,0.00
2023-05-20T02:02:58.145Z,0.00
2023-05-20T02:03:58.337Z,0.00
2023-05-20T02:04:58.034Z,0.00
2023-05-20T02:05:59.318Z,0.00
2023-05-20T02:06:57.943Z,0.00
2023-05-20T02:07:57.899Z,0.00
2023-05-20T02:08:57.861Z,0.00
2023-05-20T02:09:57.832Z,0.00
2023-05-20T02:10:59.010Z,0.00
2023-05-20T02:11:57.723Z,0.00
2023-05-20T02:12:58.819Z,0.00
2023-05-20T02:14:00.104Z,0.00
2023-05-20T02:14:57.590Z,0.00
2023-05-20T02:15:57.899Z,0.00
2023-05-20T02:16:57.794Z,0.00
2023-05-20T02:17:57.626Z,0.00
2023-05-20T02:18:57.432Z,0.00
2023-05-20T02:19:57.367Z,0.00
2023-05-20T02:20:57.320Z,0.00
2023-05-20T02:21:57.471Z,0.00
2023-05-20T02:22:57.522Z,0.00
2023-05-20T02:23:57.468Z,0.00
2023-05-20T02:24:57.145Z,0.00
2023-05-20T02:25:57.097Z,0.00
2023-05-20T02:26:57.078Z,0.00
2023-05-20T02:27:58.112Z,0.00
2023-05-20T02:28:56.964Z,0.00
2023-05-20T02:29:57.115Z,0.00
2023-05-20T02:30:56.878Z,0.00
2023-05-20T02:31:56.843Z,0.00
2023-05-20T02:32:57.158Z,0.00
2023-05-20T02:33:56.796Z,0.00
2023-05-20T02:34:56.957Z,0.00
2023-05-20T02:35:56.657Z,0.00
2023-05-20T02:36:57.779Z,0.00
2023-05-20T02:37:56.566Z,0.00
2023-05-20T02:38:57.782Z,0.00
2023-05-20T02:39:56.478Z,0.00
2023-05-20T02:40:56.577Z,0.00
2023-05-20T02:41:56.456Z,0.00
2023-05-20T02:42:57.624Z,0.00
2023-05-20T02:43:56.297Z,0.00
2023-05-20T02:44:56.284Z,0.00
2023-05-20T02:45:56.430Z,0.00
2023-05-20T02:46:56.170Z,0.00
2023-05-20T02:47:58.273Z,0.00
2023-05-20T02:48:56.076Z,0.00
2023-05-20T02:49:57.341Z,0.00
2023-05-20T02:50:56.284Z,0.00
2023-05-20T02:51:57.077Z,0.00
2023-05-20T02:52:55.911Z,0.00
2023-05-20T02:53:56.059Z,0.00
2023-05-20T02:54:57.909Z,0.00
2023-05-20T02:55:55.832Z,0.00
2023-05-20T02:56:55.866Z,0.00
2023-05-20T02:57:55.713Z,0.00
2023-05-20T02:58:56.920Z,0.00
2023-05-20T02:59:55.625Z,0.00
2023-05-20T03:00:55.552Z,0.00
2023-05-20T03:01:55.586Z,0.00
2023-05-20T03:02:55.514Z,0.00
2023-05-20T03:03:55.812Z,0.00
2023-05-20T03:04:55.485Z,0.00
2023-05-20T03:05:55.522Z,0.00
2023-05-20T03:06:55.535Z,0.00
2023-05-20T03:07:55.233Z,0.00
2023-05-20T03:08:56.365Z,0.00
2023-05-20T03:09:55.150Z,0.00
2023-05-20T03:10:55.355Z,0.00
2023-05-20T03:11:55.052Z,0.00
2023-05-20T03:12:55.004Z,0.00
2023-05-20T03:13:54.981Z,4.00
2023-05-20T03:14:56.204Z,4.00
2023-05-20T03:15:55.054Z,4.00
2023-05-20T03:16:54.992Z,4.00
2023-05-20T03:17:54.860Z,4.00
2023-05-20T03:18:54.800Z,8.00
2023-05-20T03:19:54.883Z,4.00
2023-05-20T03:20:54.720Z,8.00
2023-05-20T03:21:54.839Z,8.00
2023-05-20T03:22:54.569Z,8.00
2023-05-20T03:23:54.628Z,16.00
2023-05-20T03:24:54.472Z,16.00
2023-05-20T03:25:54.668Z,16.00
2023-05-20T03:26:54.751Z,20.00
2023-05-20T03:27:55.480Z,24.00
2023-05-20T03:28:54.298Z,24.00
2023-05-20T03:29:54.247Z,32.00
2023-05-20T03:30:54.233Z,36.00
2023-05-20T03:31:54.311Z,40.00
2023-05-20T03:32:54.167Z,48.00
2023-05-20T03:33:54.507Z,60.00
2023-05-20T03:34:54.026Z,64.00
2023-05-20T03:35:53.988Z,72.00
2023-05-20T03:36:53.953Z,84.00
2023-05-20T03:37:54.131Z,92.00
2023-05-20T03:38:53.884Z,100.00
2023-05-20T03:39:53.824Z,112.00
2023-05-20T03:40:53.942Z,128.00
2023-05-20T03:41:53.947Z,144.00
2023-05-20T03:42:53.680Z,160.00
2023-05-20T03:43:53.759Z,176.00
2023-05-20T03:44:53.584Z,188.00
2023-05-20T03:45:54.997Z,208.00
2023-05-20T03:46:53.529Z,224.00
2023-05-20T03:47:53.508Z,240.00
2023-05-20T03:48:53.601Z,264.00
2023-05-20T03:49:53.384Z,280.00
2023-05-20T03:50:53.597Z,292.00
2023-05-20T03:51:53.305Z,316.00
2023-05-20T03:52:53.516Z,352.00
2023-05-20T03:53:54.336Z,392.00
2023-05-20T03:54:54.418Z,436.00
2023-05-20T03:55:55.377Z,472.00
2023-05-20T03:56:53.060Z,504.00
2023-05-20T03:57:53.162Z,528.00
2023-05-20T03:58:53.199Z,544.00
2023-05-20T03:59:52.926Z,584.00
2023-05-20T04:00:52.874Z,636.00
2023-05-20T04:01:53.008Z,692.00
2023-05-20T04:02:52.949Z,736.00
2023-05-20T04:03:54.044Z,796.00
2023-05-20T04:04:52.698Z,848.00
2023-05-20T04:05:52.649Z,892.00
2023-05-20T04:06:52.792Z,948.00
2023-05-20T04:07:52.636Z,1000.00
2023-05-20T04:08:52.816Z,1060.00
2023-05-20T04:09:52.474Z,1100.00
2023-05-20T04:10:54.673Z,1156.00
2023-05-20T04:11:52.384Z,1192.00
2023-05-20T04:12:52.657Z,1248.00
2023-05-20T04:13:52.310Z,1268.00
2023-05-20T04:14:52.465Z,1344.00
2023-05-20T04:15:52.213Z,1468.00
2023-05-20T04:16:52.520Z,1564.00
2023-05-20T04:17:52.151Z,1656.00
2023-05-20T04:18:52.311Z,1688.00
2023-05-20T04:19:52.072Z,1768.00
2023-05-20T04:20:52.025Z,1848.00
2023-05-20T04:21:52.103Z,1940.00
2023-05-20T04:22:51.924Z,2044.00
2023-05-20T04:23:52.099Z,2056.00
2023-05-20T04:24:51.812Z,2060.00
2023-05-20T04:25:52.114Z,2212.00
2023-05-20T04:26:51.726Z,2404.00
2023-05-20T04:27:52.950Z,2484.00
2023-05-20T04:28:51.670Z,2612.00
2023-05-20T04:29:51.735Z,2628.00
2023-05-20T04:30:51.549Z,2656.00
2023-05-20T04:31:52.809Z,2768.00
2023-05-20T04:32:51.471Z,2964.00
2023-05-20T04:33:51.564Z,3040.00
2023-05-20T04:34:52.588Z,3044.00
2023-05-20T04:35:51.333Z,3176.00
2023-05-20T04:36:51.596Z,3296.00
2023-05-20T04:37:51.264Z,3272.00
2023-05-20T04:38:51.404Z,3412.00
2023-05-20T04:39:51.165Z,3448.00
2023-05-20T04:40:51.107Z,3688.00
2023-05-20T04:41:51.226Z,3968.00
2023-05-20T04:42:51.035Z,4056.00
2023-05-20T04:43:53.490Z,4220.00
2023-05-20T04:44:50.934Z,4472.00
2023-05-20T04:45:51.066Z,4644.00
2023-05-20T04:46:50.872Z,4844.00
2023-05-20T04:47:53.443Z,5056.00
2023-05-20T04:48:50.760Z,5256.00
2023-05-20T04:49:50.864Z,5304.00
2023-05-20T04:50:50.676Z,5324.00
2023-05-20T04:51:50.883Z,5096.00
2023-05-20T04:52:50.711Z,4828.00
2023-05-20T04:53:50.621Z,4776.00
2023-05-20T04:54:50.699Z,5000.00
2023-05-20T04:55:50.523Z,5176.00
2023-05-20T04:56:51.527Z,5360.00
2023-05-20T04:57:50.377Z,5500.00
2023-05-20T04:58:50.326Z,5456.00
2023-05-20T04:59:51.753Z,5152.00
2023-05-20T05:00:50.240Z,4724.00
2023-05-20T05:01:50.404Z,4508.00
2023-05-20T05:02:50.208Z,4264.00
2023-05-20T05:03:50.351Z,4120.00
2023-05-20T05:04:50.076Z,4176.00
2023-05-20T05:05:50.366Z,3948.00
2023-05-20T05:06:49.999Z,3916.00
2023-05-20T05:07:51.198Z,4200.00
2023-05-20T05:08:49.926Z,4640.00
2023-05-20T05:09:49.856Z,4816.00
2023-05-20T05:10:49.828Z,4708.00
2023-05-20T05:11:50.209Z,4584.00
2023-05-20T05:12:49.728Z,4576.00
2023-05-20T05:13:49.862Z,4928.00
2023-05-20T05:14:49.634Z,5444.00
2023-05-20T05:15:49.623Z,5996.00
2023-05-20T05:16:49.551Z,6020.00
2023-05-20T05:17:49.907Z,5864.00
2023-05-20T05:18:49.524Z,5856.00
2023-05-20T05:19:49.676Z,5876.00
2023-05-20T05:20:49.389Z,6096.00
2023-05-20T05:21:49.333Z,6116.00
2023-05-20T05:22:49.310Z,6152.00
2023-05-20T05:23:49.682Z,6308.00
2023-05-20T05:24:49.206Z,6516.00
2023-05-20T05:25:50.307Z,6612.00
2023-05-20T05:26:49.175Z,6780.00
2023-05-20T05:27:49.072Z,6976.00
2023-05-20T05:28:49.037Z,6988.00
2023-05-20T05:29:49.363Z,6936.00
2023-05-20T05:30:48.976Z,7008.00
2023-05-20T05:31:49.194Z,7220.00
2023-05-20T05:32:48.962Z,7452.00
2023-05-20T05:33:48.822Z,7420.00
2023-05-20T05:34:48.772Z,7192.00
2023-05-20T05:35:51.205Z,7200.00
2023-05-20T05:36:48.690Z,7604.00
2023-05-20T05:37:48.964Z,7840.00
2023-05-20T05:38:48.597Z,7852.00
2023-05-20T05:39:48.558Z,7584.00
2023-05-20T05:40:48.679Z,7576.00
2023-05-20T05:41:48.503Z,7868.00
2023-05-20T05:42:48.632Z,8116.00
2023-05-20T05:43:48.543Z,8628.00
2023-05-20T05:44:48.505Z,9060.00
2023-05-20T05:45:48.350Z,9384.00
2023-05-20T05:46:49.378Z,9440.00
2023-05-20T05:47:48.405Z,9360.00
2023-05-20T05:48:48.327Z,9192.00
2023-05-20T05:49:48.137Z,8872.00
2023-05-20T05:50:49.374Z,8388.00
2023-05-20T05:51:48.067Z,8124.00
2023-05-20T05:52:48.150Z,8596.00
2023-05-20T05:53:48.084Z,8888.00
2023-05-20T05:54:47.964Z,8948.00
2023-05-20T05:55:47.873Z,8868.00
2023-05-20T05:56:47.837Z,8944.00
2023-05-20T05:57:47.798Z,9084.00
2023-05-20T05:58:48.810Z,9164.00
2023-05-20T05:59:47.700Z,9276.00
2023-05-20T06:03:47.500Z,9904.00
2023-05-20T06:04:48.455Z,10344.00
2023-05-20T06:05:47.329Z,10624.00
2023-05-20T06:06:47.433Z,10616.00
2023-05-20T06:07:47.218Z,10680.00
2023-05-20T06:08:47.166Z,10940.00
2023-05-20T06:09:47.250Z,10764.00
2023-05-20T06:10:48.407Z,10256.00
2023-05-20T06:11:47.074Z,10308.00
2023-05-20T06:12:47.060Z,10092.00
2023-05-20T06:13:47.088Z,10504.00
2023-05-20T06:14:47.104Z,10700.00
2023-05-20T06:15:46.865Z,11068.00
2023-05-20T06:16:46.903Z,11736.00
2023-05-20T06:17:46.833Z,12672.00
2023-05-20T06:18:49.201Z,13016.00
2023-05-20T06:19:46.715Z,12908.00
2023-05-20T06:20:46.645Z,13248.00
2023-05-20T06:21:46.722Z,12724.00
2023-05-20T06:22:46.585Z,12340.00
2023-05-20T06:23:46.544Z,12248.00
2023-05-20T06:24:46.555Z,12408.00
2023-05-20T06:25:46.442Z,12628.00
2023-05-20T06:26:46.390Z,13012.00
2023-05-20T06:27:47.404Z,13220.00
2023-05-20T06:28:46.317Z,13624.00
2023-05-20T06:29:48.650Z,14408.00
2023-05-20T06:30:46.232Z,14444.00
2023-05-20T06:31:46.388Z,14964.00
2023-05-20T06:32:46.186Z,15088.00
2023-05-20T06:33:46.199Z,16152.00
2023-05-20T06:34:46.097Z,17120.00
2023-05-20T06:35:48.060Z,16508.00
2023-05-20T06:36:46.040Z,17568.00
2023-05-20T06:37:46.014Z,18368.00
2023-05-20T06:38:45.893Z,17920.00
2023-05-20T06:39:46.211Z,17824.00
2023-05-20T06:40:46.917Z,18176.00
2023-05-20T06:41:45.860Z,17600.00
2023-05-20T06:42:45.732Z,16608.00
2023-05-20T06:43:45.696Z,16584.00
2023-05-20T06:44:45.647Z,17152.00
2023-05-20T06:45:45.672Z,17856.00
2023-05-20T06:46:45.739Z,18688.00
2023-05-20T06:47:45.750Z,18784.00
2023-05-20T06:48:45.795Z,18688.00
2023-05-20T06:49:47.410Z,18528.00
2023-05-20T06:50:45.402Z,17440.00
2023-05-20T06:51:46.652Z,15824.00
2023-05-20T06:52:45.348Z,15336.00
2023-05-20T06:53:45.433Z,14128.00
2023-05-20T06:54:45.239Z,13208.00
2023-05-20T06:55:45.198Z,13212.00
2023-05-20T06:56:45.248Z,13500.00
2023-05-20T06:57:45.309Z,14352.00
2023-05-20T06:58:45.285Z,15244.00
2023-05-20T06:59:45.130Z,15152.00
2023-05-20T07:00:46.294Z,15148.00
2023-05-20T07:01:45.053Z,14596.00
2023-05-20T07:02:45.168Z,14120.00
2023-05-20T07:03:44.937Z,14408.00
2023-05-20T07:04:44.990Z,13808.00
2023-05-20T07:05:44.786Z,12740.00
2023-05-20T07:06:44.782Z,12208.00
2023-05-20T07:07:44.700Z,10964.00
2023-05-20T07:08:44.738Z,10008.00
2023-05-20T07:09:44.624Z,10140.00
2023-05-20T07:10:44.733Z,10148.00
2023-05-20T07:11:44.588Z,10224.00
2023-05-20T07:12:44.527Z,10172.00
2023-05-20T07:13:44.461Z,10164.00
2023-05-20T07:14:44.464Z,9740.00
2023-05-20T07:15:44.400Z,10656.00
2023-05-20T07:16:45.491Z,10744.00
2023-05-20T07:17:44.324Z,10100.00
2023-05-20T07:18:44.381Z,10160.00
2023-05-20T07:19:44.237Z,11084.00
2023-05-20T07:20:44.302Z,11272.00
2023-05-20T07:21:44.126Z,11700.00
2023-05-20T07:22:45.335Z,11600.00
2023-05-20T07:23:44.198Z,10540.00
2023-05-20T07:24:44.052Z,10240.00
2023-05-20T07:25:44.026Z,11548.00
2023-05-20T07:26:43.930Z,13084.00
2023-05-20T07:27:44.044Z,14176.00
2023-05-20T07:28:43.843Z,14076.00
2023-05-20T07:29:44.048Z,14636.00
2023-05-20T07:30:43.752Z,14820.00
2023-05-20T07:31:43.911Z,15880.00
2023-05-20T07:32:43.703Z,15780.00
2023-05-20T07:33:43.889Z,14820.00
2023-05-20T07:34:43.587Z,15652.00
2023-05-20T07:35:43.581Z,14928.00
2023-05-20T07:36:43.504Z,13124.00
2023-05-20T07:37:44.948Z,13076.00
2023-05-20T07:38:49.997Z,12648.00
2023-05-20T07:39:43.387Z,12736.00
2023-05-20T07:40:43.528Z,14028.00
2023-05-20T07:41:43.353Z,15636.00
2023-05-20T07:42:43.268Z,16312.00
2023-05-20T07:43:43.275Z,18656.00
2023-05-20T07:44:43.392Z,18464.00
2023-05-20T07:45:43.193Z,16712.00
2023-05-20T07:46:45.239Z,17824.00
2023-05-20T07:47:43.080Z,17056.00
2023-05-20T07:48:43.087Z,14644.00
2023-05-20T07:49:42.989Z,14852.00
2023-05-20T07:50:42.989Z,18208.00
2023-05-20T07:51:42.914Z,21920.00
2023-05-20T07:52:55.299Z,20992.00
2023-05-20T07:53:42.840Z,18272.00
2023-05-20T07:54:42.803Z,18720.00
2023-05-20T07:55:42.725Z,18624.00
2023-05-20T07:56:44.883Z,17344.00
2023-05-20T07:57:44.163Z,15364.00
2023-05-20T07:58:42.841Z,15024.00
2023-05-20T07:59:42.602Z,16200.00
2023-05-20T08:00:42.648Z,18016.00
2023-05-20T08:01:42.516Z,20800.00
2023-05-20T08:02:42.765Z,21120.00
2023-05-20T08:03:42.470Z,18176.00
2023-05-20T08:04:42.705Z,17408.00
2023-05-20T08:05:42.324Z,19488.00
2023-05-20T08:06:42.491Z,18048.00
2023-05-20T08:07:42.325Z,15324.00
2023-05-20T08:08:43.318Z,14232.00
2023-05-20T08:09:42.161Z,13660.00
2023-05-20T08:10:42.307Z,15492.00
2023-05-20T08:11:42.081Z,17952.00
2023-05-20T08:12:42.128Z,18464.00
2023-05-20T08:13:41.988Z,16512.00
2023-05-20T08:14:42.139Z,16532.00
2023-05-20T08:15:41.909Z,17696.00
2023-05-20T08:16:42.192Z,18944.00
2023-05-20T08:17:41.895Z,18784.00
2023-05-20T08:18:42.022Z,18464.00
2023-05-20T08:19:41.751Z,15788.00
2023-05-20T08:20:42.794Z,14900.00
2023-05-20T08:21:41.663Z,18688.00
2023-05-20T08:22:42.817Z,21984.00
2023-05-20T08:23:41.633Z,22592.00
2023-05-20T08:24:41.793Z,24032.00
2023-05-20T08:25:41.512Z,25120.00
2023-05-20T08:26:41.608Z,26080.00
2023-05-20T08:27:41.463Z,26112.00
2023-05-20T08:28:42.882Z,28992.00
2023-05-20T08:29:41.334Z,29856.00
2023-05-20T08:30:42.502Z,30144.00
2023-05-20T08:31:41.314Z,28224.00
2023-05-20T08:32:41.476Z,23616.00
2023-05-20T08:33:41.172Z,21632.00
2023-05-20T08:34:41.165Z,20896.00
2023-05-20T08:35:41.266Z,20256.00
2023-05-20T08:36:41.048Z,19616.00
2023-05-20T08:37:41.008Z,18240.00
2023-05-20T08:38:43.331Z,16656.00
2023-05-20T08:39:40.933Z,15784.00
2023-05-20T08:40:41.094Z,15796.00
2023-05-20T08:41:40.846Z,16180.00
2023-05-20T08:42:41.932Z,16268.00
2023-05-20T08:43:40.773Z,18272.00
2023-05-20T08:44:40.926Z,20640.00
2023-05-20T08:45:42.067Z,22048.00
2023-05-20T08:46:40.769Z,23648.00
2023-05-20T08:47:40.655Z,22656.00
2023-05-20T08:48:40.742Z,21472.00
2023-05-20T08:49:40.534Z,21760.00
2023-05-20T08:50:40.759Z,20480.00
2023-05-20T08:51:40.449Z,19520.00
2023-05-20T08:52:40.571Z,19584.00
2023-05-20T08:53:40.381Z,19616.00
2023-05-20T08:54:40.368Z,20640.00
2023-05-20T08:55:40.292Z,21600.00
2023-05-20T08:56:41.417Z,18784.00
2023-05-20T08:57:40.220Z,18080.00
2023-05-20T08:58:41.439Z,17984.00
2023-05-20T08:59:41.490Z,14368.00
2023-05-20T09:00:40.229Z,10740.00
2023-05-20T09:01:40.284Z,9104.00
2023-05-20T09:02:40.064Z,10804.00
2023-05-20T09:03:42.335Z,11968.00
2023-05-20T09:04:39.993Z,12544.00
2023-05-20T09:05:42.105Z,12644.00
2023-05-20T09:06:39.980Z,10772.00
2023-05-20T09:07:39.870Z,9612.00
2023-05-20T09:08:39.773Z,8588.00
2023-05-20T09:09:40.089Z,8344.00
2023-05-20T09:10:39.716Z,8456.00
2023-05-20T09:11:39.945Z,8668.00
2023-05-20T09:12:39.612Z,9332.00
2023-05-20T09:13:39.623Z,9304.00
2023-05-20T09:14:39.579Z,9168.00
2023-05-20T09:15:40.740Z,10960.00
2023-05-20T09:16:39.589Z,12552.00
2023-05-20T09:17:39.595Z,12356.00
2023-05-20T09:18:39.643Z,13304.00
2023-05-20T09:19:39.359Z,15996.00
2023-05-20T09:20:39.283Z,17472.00
2023-05-20T09:21:39.377Z,16500.00
2023-05-20T09:22:39.197Z,14356.00
2023-05-20T09:23:39.375Z,11952.00
2023-05-20T09:24:39.143Z,10984.00
2023-05-20T09:25:39.240Z,11840.00
2023-05-20T09:26:39.235Z,12760.00
2023-05-20T09:27:39.022Z,11512.00
2023-05-20T09:28:39.399Z,11600.00
2023-05-20T09:29:38.915Z,12024.00
2023-05-20T09:30:39.007Z,12348.00
2023-05-20T09:31:39.070Z,15928.00
2023-05-20T09:32:39.075Z,22560.00
2023-05-20T09:33:38.752Z,20320.00
2023-05-20T09:34:38.830Z,19200.00
2023-05-20T09:35:38.677Z,17504.00
2023-05-20T09:36:38.849Z,15248.00
2023-05-20T09:37:38.600Z,14744.00
2023-05-20T09:38:38.863Z,18144.00
2023-05-20T09:39:38.583Z,20160.00
2023-05-20T09:40:38.672Z,22112.00
2023-05-20T09:41:38.523Z,25376.00
2023-05-20T09:42:39.525Z,27136.00
2023-05-20T09:43:38.340Z,24480.00
2023-05-20T09:44:38.495Z,23776.00
2023-05-20T09:45:38.258Z,23456.00
2023-05-20T09:46:59.810Z,21120.00
2023-05-20T09:47:38.200Z,18080.00
2023-05-20T09:48:38.353Z,15492.00
2023-05-20T09:49:38.139Z,14536.00
2023-05-20T09:50:40.385Z,15572.00
2023-05-20T09:51:38.069Z,18080.00
2023-05-20T09:52:38.148Z,20384.00
2023-05-20T09:53:37.934Z,23904.00
2023-05-20T09:54:38.977Z,29216.00
2023-05-20T09:55:37.993Z,33472.00
2023-05-20T09:56:37.973Z,32320.00
2023-05-20T09:57:37.784Z,31136.00
2023-05-20T09:58:39.213Z,34688.00
2023-05-20T09:59:37.684Z,38592.00
2023-05-20T10:00:37.814Z,35840.00
2023-05-20T10:01:37.709Z,33440.00
2023-05-20T10:02:37.971Z,34656.00
2023-05-20T10:03:37.670Z,36928.00
2023-05-20T10:04:37.642Z,39168.00
2023-05-20T10:05:37.467Z,38464.00
2023-05-20T10:06:37.636Z,32032.00
2023-05-20T10:07:42.148Z,24096.00
2023-05-20T10:08:37.444Z,18336.00
2023-05-20T10:09:37.296Z,14136.00
2023-05-20T10:10:37.713Z,12636.00
2023-05-20T10:11:37.280Z,14076.00
2023-05-20T10:12:38.301Z,17632.00
2023-05-20T10:13:37.324Z,19008.00
2023-05-20T10:14:37.113Z,17280.00
2023-05-20T10:15:37.507Z,15652.00
2023-05-20T10:16:37.017Z,16384.00
2023-05-20T10:17:37.145Z,17888.00
2023-05-20T10:18:36.954Z,20064.00
2023-05-20T10:19:57.919Z,20608.00
2023-05-20T10:20:36.867Z,20288.00
2023-05-20T10:21:36.928Z,18496.00
2023-05-20T10:22:36.785Z,20448.00
2023-05-20T10:23:36.954Z,19904.00
2023-05-20T10:24:38.085Z,19072.00
2023-05-20T10:25:36.967Z,21952.00
2023-05-20T10:26:36.711Z,21344.00
2023-05-20T10:27:36.774Z,17760.00
2023-05-20T10:28:36.572Z,18048.00
2023-05-20T10:29:36.783Z,19424.00
2023-05-20T10:30:36.854Z,17952.00
2023-05-20T10:31:36.597Z,16092.00
2023-05-20T10:32:36.460Z,14992.00
2023-05-20T10:33:57.515Z,14272.00
2023-05-20T10:34:36.344Z,13728.00
2023-05-20T10:35:36.420Z,13196.00
2023-05-20T10:36:36.231Z,13592.00
2023-05-20T10:37:36.438Z,14728.00
2023-05-20T10:38:36.147Z,16276.00
2023-05-20T10:39:36.238Z,19648.00
2023-05-20T10:40:36.534Z,24288.00
2023-05-20T10:41:37.283Z,30272.00
2023-05-20T10:42:36.007Z,35680.00
2023-05-20T10:43:36.067Z,36992.00
2023-05-20T10:44:35.922Z,34272.00
2023-05-20T10:45:37.108Z,32480.00
2023-05-20T10:46:51.444Z,33760.00
2023-05-20T10:47:35.887Z,35584.00
2023-05-20T10:48:35.998Z,37920.00
2023-05-20T10:49:35.729Z,42272.00
2023-05-20T10:50:35.884Z,47648.00
2023-05-20T10:51:36.743Z,52448.00
2023-05-20T10:52:35.767Z,56800.00
2023-05-20T10:53:35.734Z,51712.00
2023-05-20T10:54:35.518Z,41280.00
2023-05-20T10:55:35.744Z,36608.00
2023-05-20T10:56:35.438Z,32320.00
2023-05-20T10:57:36.587Z,28928.00
2023-05-20T10:58:35.366Z,27936.00
2023-05-20T10:59:37.421Z,24800.00
2023-05-20T11:00:35.654Z,21888.00
2023-05-20T11:01:35.500Z,21312.00
2023-05-20T11:02:35.288Z,23808.00
2023-05-20T11:03:36.762Z,25152.00
2023-05-20T11:04:35.370Z,23456.00
2023-05-20T11:05:35.224Z,21056.00
2023-05-20T11:06:35.086Z,23104.00
2023-05-20T11:07:35.249Z,25248.00
2023-05-20T11:08:35.077Z,26752.00
2023-05-20T11:09:35.287Z,27392.00
2023-05-20T11:10:35.272Z,27232.00
2023-05-20T11:11:35.042Z,27136.00
2023-05-20T11:12:34.853Z,27104.00
2023-05-20T11:13:35.057Z,30368.00
2023-05-20T11:14:35.958Z,38528.00
2023-05-20T11:15:36.923Z,59584.00
2023-05-20T11:16:34.708Z,48992.00
2023-05-20T11:17:34.904Z,48672.00
2023-05-20T11:18:34.593Z,50912.00
2023-05-20T11:19:34.800Z,45568.00
2023-05-20T11:20:34.716Z,44320.00
2023-05-20T11:21:35.740Z,41760.00
2023-05-20T11:22:34.434Z,39328.00
2023-05-20T11:23:34.526Z,39360.00
2023-05-20T11:24:34.357Z,34208.00
2023-05-20T11:25:35.556Z,29888.00
2023-05-20T11:26:35.773Z,26816.00
2023-05-20T11:27:34.253Z,23936.00
2023-05-20T11:28:35.376Z,23552.00
2023-05-20T11:29:34.175Z,24896.00
2023-05-20T11:30:34.527Z,26208.00
2023-05-20T11:31:34.160Z,28736.00
2023-05-20T11:32:34.277Z,33632.00
2023-05-20T11:33:34.181Z,42880.00
2023-05-20T11:34:33.995Z,44672.00
2023-05-20T11:35:55.093Z,45504.00
2023-05-20T11:36:33.927Z,49472.00
2023-05-20T11:37:34.014Z,42336.00
2023-05-20T11:38:36.268Z,36096.00
2023-05-20T11:39:33.829Z,31776.00
2023-05-20T11:40:46.282Z,27776.00
2023-05-20T11:41:33.743Z,26208.00
2023-05-20T11:42:34.040Z,25376.00
2023-05-20T11:43:33.644Z,23808.00
2023-05-20T11:44:33.623Z,23552.00
2023-05-20T11:45:33.867Z,23712.00
2023-05-20T11:46:33.592Z,24608.00
2023-05-20T11:47:33.686Z,23552.00
2023-05-20T11:48:33.452Z,22592.00
2023-05-20T11:49:34.727Z,22912.00
2023-05-20T11:50:33.877Z,24512.00
2023-05-20T11:51:33.346Z,25088.00
2023-05-20T11:52:35.153Z,23136.00
2023-05-20T11:53:33.261Z,20160.00
2023-05-20T11:54:33.523Z,18560.00
2023-05-20T11:55:33.210Z,18080.00
2023-05-20T11:56:54.429Z,17472.00
2023-05-20T11:57:33.116Z,17600.00
2023-05-20T11:58:33.546Z,18624.00
2023-05-20T11:59:33.038Z,21312.00
2023-05-20T12:00:49.407Z,23904.00
2023-05-20T12:01:33.161Z,25312.00
2023-05-20T12:02:33.010Z,26144.00
2023-05-20T12:03:33.179Z,25632.00
2023-05-20T12:04:33.020Z,23744.00
2023-05-20T12:05:32.808Z,22304.00
2023-05-20T12:06:32.890Z,21344.00
2023-05-20T12:07:32.731Z,20160.00
2023-05-20T12:08:32.902Z,19296.00
2023-05-20T12:09:32.971Z,19424.00
2023-05-20T12:10:34.248Z,19328.00
2023-05-20T12:11:32.567Z,17984.00
2023-05-20T12:12:32.738Z,15224.00
2023-05-20T12:13:34.999Z,13112.00
2023-05-20T12:14:32.951Z,11868.00
2023-05-20T12:15:32.549Z,11408.00
2023-05-20T12:16:32.405Z,11532.00
2023-05-20T12:17:32.634Z,11420.00